sensor_id;sensor_type;location;lat;lon;timestamp;pressure;altitude;pressure_sealevel;temperature
37536;BMP180;23379;51.554;6.736;2023-10-31T00:01:03;98942.00;;;11.60
37536;BMP180;23379;51.554;6.736;2023-10-31T00:03:28;98949.00;;;11.50
37536;BMP180;23379;51.554;6.736;2023-10-31T00:05:53;98949.00;;;11.10
37536;BMP180;23379;51.554;6.736;2023-10-31T00:08:19;98966.00;;;11.20
37536;BMP180;23379;51.554;6.736;2023-10-31T00:10:44;98971.00;;;11.20
37536;BMP180;23379;51.554;6.736;2023-10-31T00:13:11;98994.00;;;11.20
37536;BMP180;23379;51.554;6.736;2023-10-31T00:15:37;98971.00;;;11.10
37536;BMP180;23379;51.554;6.736;2023-10-31T00:18:02;99000.00;;;10.90
37536;BMP180;23379;51.554;6.736;2023-10-31T00:20:27;99003.00;;;10.90
37536;BMP180;23379;51.554;6.736;2023-10-31T00:22:53;99019.00;;;10.90
37536;BMP180;23379;51.554;6.736;2023-10-31T00:25:18;99020.00;;;10.90
37536;BMP180;23379;51.554;6.736;2023-10-31T00:27:44;99019.00;;;10.90
37536;BMP180;23379;51.554;6.736;2023-10-31T00:30:10;99040.00;;;10.90
37536;BMP180;23379;51.554;6.736;2023-10-31T00:32:36;99024.00;;;10.90
37536;BMP180;23379;51.554;6.736;2023-10-31T00:35:01;99049.00;;;10.80
37536;BMP180;23379;51.554;6.736;2023-10-31T00:37:26;99055.00;;;10.80
37536;BMP180;23379;51.554;6.736;2023-10-31T00:39:52;99063.00;;;10.80
37536;BMP180;23379;51.554;6.736;2023-10-31T00:42:17;99068.00;;;10.80
37536;BMP180;23379;51.554;6.736;2023-10-31T00:44:42;99076.00;;;10.90
37536;BMP180;23379;51.554;6.736;2023-10-31T00:47:08;99077.00;;;10.90
37536;BMP180;23379;51.554;6.736;2023-10-31T00:49:33;99084.00;;;10.80
37536;BMP180;23379;51.554;6.736;2023-10-31T00:51:59;99097.00;;;10.70
37536;BMP180;23379;51.554;6.736;2023-10-31T00:54:24;99100.00;;;10.60
37536;BMP180;23379;51.554;6.736;2023-10-31T00:56:49;99112.00;;;10.60
37536;BMP180;23379;51.554;6.736;2023-10-31T00:59:14;99108.00;;;10.60
37536;BMP180;23379;51.554;6.736;2023-10-31T01:01:40;99103.00;;;10.50
37536;BMP180;23379;51.554;6.736;2023-10-31T01:04:06;99102.00;;;10.50
37536;BMP180;23379;51.554;6.736;2023-10-31T01:06:31;99136.00;;;10.60
37536;BMP180;23379;51.554;6.736;2023-10-31T01:08:56;99111.00;;;10.50
37536;BMP180;23379;51.554;6.736;2023-10-31T01:11:22;99146.00;;;10.50
37536;BMP180;23379;51.554;6.736;2023-10-31T01:13:47;99138.00;;;10.60
37536;BMP180;23379;51.554;6.736;2023-10-31T01:16:12;99140.00;;;10.70
37536;BMP180;23379;51.554;6.736;2023-10-31T01:18:38;99146.00;;;10.50
37536;BMP180;23379;51.554;6.736;2023-10-31T01:21:03;99149.00;;;10.70
37536;BMP180;23379;51.554;6.736;2023-10-31T01:23:28;99141.00;;;10.60
37536;BMP180;23379;51.554;6.736;2023-10-31T01:25:54;99139.00;;;10.60
37536;BMP180;23379;51.554;6.736;2023-10-31T01:28:19;99159.00;;;10.70
37536;BMP180;23379;51.554;6.736;2023-10-31T01:30:44;99165.00;;;10.60
37536;BMP180;23379;51.554;6.736;2023-10-31T01:33:10;99163.00;;;10.60
37536;BMP180;23379;51.554;6.736;2023-10-31T01:35:35;99164.00;;;10.60
37536;BMP180;23379;51.554;6.736;2023-10-31T01:38:01;99159.00;;;10.50
37536;BMP180;23379;51.554;6.736;2023-10-31T01:40:26;99168.00;;;10.70
37536;BMP180;23379;51.554;6.736;2023-10-31T01:42:51;99169.00;;;10.60
37536;BMP180;23379;51.554;6.736;2023-10-31T01:45:17;99168.00;;;10.60
37536;BMP180;23379;51.554;6.736;2023-10-31T01:47:43;99187.00;;;10.80
37536;BMP180;23379;51.554;6.736;2023-10-31T01:50:10;99161.00;;;10.50
37536;BMP180;23379;51.554;6.736;2023-10-31T01:52:36;99177.00;;;10.70
37536;BMP180;23379;51.554;6.736;2023-10-31T01:55:02;99182.00;;;10.80
37536;BMP180;23379;51.554;6.736;2023-10-31T01:57:28;99191.00;;;10.80
37536;BMP180;23379;51.554;6.736;2023-10-31T01:59:53;99176.00;;;10.80
37536;BMP180;23379;51.554;6.736;2023-10-31T02:02:21;99183.00;;;10.80
37536;BMP180;23379;51.554;6.736;2023-10-31T02:04:48;99193.00;;;10.80
37536;BMP180;23379;51.554;6.736;2023-10-31T02:07:14;99186.00;;;10.80
37536;BMP180;23379;51.554;6.736;2023-10-31T02:09:39;99206.00;;;10.90
37536;BMP180;23379;51.554;6.736;2023-10-31T02:12:04;99196.00;;;10.80
37536;BMP180;23379;51.554;6.736;2023-10-31T02:14:30;99183.00;;;10.70
37536;BMP180;23379;51.554;6.736;2023-10-31T02:16:55;99200.00;;;10.70
37536;BMP180;23379;51.554;6.736;2023-10-31T02:19:20;99205.00;;;10.90
37536;BMP180;23379;51.554;6.736;2023-10-31T02:21:46;99210.00;;;10.80
37536;BMP180;23379;51.554;6.736;2023-10-31T02:24:11;99206.00;;;10.80
37536;BMP180;23379;51.554;6.736;2023-10-31T02:26:37;99199.00;;;10.80
37536;BMP180;23379;51.554;6.736;2023-10-31T02:29:03;99218.00;;;10.70
37536;BMP180;23379;51.554;6.736;2023-10-31T02:31:28;99195.00;;;10.80
37536;BMP180;23379;51.554;6.736;2023-10-31T02:33:54;99198.00;;;10.90
37536;BMP180;23379;51.554;6.736;2023-10-31T02:36:20;99214.00;;;10.70
37536;BMP180;23379;51.554;6.736;2023-10-31T02:38:46;99207.00;;;10.80
37536;BMP180;23379;51.554;6.736;2023-10-31T02:41:12;99200.00;;;10.80
37536;BMP180;23379;51.554;6.736;2023-10-31T02:43:38;99196.00;;;10.50
37536;BMP180;23379;51.554;6.736;2023-10-31T02:46:04;99219.00;;;10.60
37536;BMP180;23379;51.554;6.736;2023-10-31T02:48:29;99203.00;;;10.50
37536;BMP180;23379;51.554;6.736;2023-10-31T02:50:57;99194.00;;;10.60
37536;BMP180;23379;51.554;6.736;2023-10-31T02:53:23;99209.00;;;10.60
37536;BMP180;23379;51.554;6.736;2023-10-31T02:55:48;99210.00;;;10.70
37536;BMP180;23379;51.554;6.736;2023-10-31T02:58:14;99215.00;;;10.60
37536;BMP180;23379;51.554;6.736;2023-10-31T03:00:39;99201.00;;;10.60
37536;BMP180;23379;51.554;6.736;2023-10-31T03:03:04;99205.00;;;10.60
37536;BMP180;23379;51.554;6.736;2023-10-31T03:05:30;99204.00;;;10.70
37536;BMP180;23379;51.554;6.736;2023-10-31T03:07:55;99213.00;;;10.90
37536;BMP180;23379;51.554;6.736;2023-10-31T03:10:21;99214.00;;;10.70
37536;BMP180;23379;51.554;6.736;2023-10-31T03:12:47;99208.00;;;10.70
37536;BMP180;23379;51.554;6.736;2023-10-31T03:15:12;99189.00;;;10.70
37536;BMP180;23379;51.554;6.736;2023-10-31T03:17:38;99204.00;;;10.70
37536;BMP180;23379;51.554;6.736;2023-10-31T03:20:03;99183.00;;;10.60
37536;BMP180;23379;51.554;6.736;2023-10-31T03:22:29;99187.00;;;10.60
37536;BMP180;23379;51.554;6.736;2023-10-31T03:24:54;99192.00;;;10.80
37536;BMP180;23379;51.554;6.736;2023-10-31T03:27:20;99199.00;;;10.80
37536;BMP180;23379;51.554;6.736;2023-10-31T03:29:45;99194.00;;;10.70
37536;BMP180;23379;51.554;6.736;2023-10-31T03:32:11;99197.00;;;10.80
37536;BMP180;23379;51.554;6.736;2023-10-31T03:34:37;99192.00;;;10.80
37536;BMP180;23379;51.554;6.736;2023-10-31T03:37:03;99201.00;;;10.70
37536;BMP180;23379;51.554;6.736;2023-10-31T03:39:29;99210.00;;;10.70
37536;BMP180;23379;51.554;6.736;2023-10-31T03:41:54;99198.00;;;10.70
37536;BMP180;23379;51.554;6.736;2023-10-31T03:44:20;99211.00;;;10.80
37536;BMP180;23379;51.554;6.736;2023-10-31T03:46:45;99211.00;;;10.80
37536;BMP180;23379;51.554;6.736;2023-10-31T03:49:11;99217.00;;;10.80
37536;BMP180;23379;51.554;6.736;2023-10-31T03:51:36;99210.00;;;10.70
37536;BMP180;23379;51.554;6.736;2023-10-31T03:54:01;99220.00;;;10.70
37536;BMP180;23379;51.554;6.736;2023-10-31T03:56:27;99219.00;;;10.70
37536;BMP180;23379;51.554;6.736;2023-10-31T03:58:52;99245.00;;;10.80
37536;BMP180;23379;51.554;6.736;2023-10-31T04:01:17;99224.00;;;10.90
37536;BMP180;23379;51.554;6.736;2023-10-31T04:03:43;99250.00;;;10.80
37536;BMP180;23379;51.554;6.736;2023-10-31T04:06:09;99235.00;;;10.70
37536;BMP180;23379;51.554;6.736;2023-10-31T04:08:34;99238.00;;;10.70
37536;BMP180;23379;51.554;6.736;2023-10-31T04:10:59;99251.00;;;10.80
37536;BMP180;23379;51.554;6.736;2023-10-31T04:13:24;99244.00;;;10.70
37536;BMP180;23379;51.554;6.736;2023-10-31T04:15:50;99223.00;;;10.70
37536;BMP180;23379;51.554;6.736;2023-10-31T04:18:15;99252.00;;;10.90
37536;BMP180;23379;51.554;6.736;2023-10-31T04:20:42;99254.00;;;10.80
37536;BMP180;23379;51.554;6.736;2023-10-31T04:23:07;99241.00;;;10.80
37536;BMP180;23379;51.554;6.736;2023-10-31T04:25:33;99262.00;;;10.90
37536;BMP180;23379;51.554;6.736;2023-10-31T04:27:59;99233.00;;;10.80
37536;BMP180;23379;51.554;6.736;2023-10-31T04:30:24;99270.00;;;10.90
37536;BMP180;23379;51.554;6.736;2023-10-31T04:32:49;99260.00;;;10.80
37536;BMP180;23379;51.554;6.736;2023-10-31T04:35:15;99268.00;;;10.90
37536;BMP180;23379;51.554;6.736;2023-10-31T04:37:40;99258.00;;;10.90
37536;BMP180;23379;51.554;6.736;2023-10-31T04:40:06;99262.00;;;10.80
37536;BMP180;23379;51.554;6.736;2023-10-31T04:42:32;99284.00;;;10.80
37536;BMP180;23379;51.554;6.736;2023-10-31T04:44:59;99274.00;;;10.80
37536;BMP180;23379;51.554;6.736;2023-10-31T04:47:24;99278.00;;;10.80
37536;BMP180;23379;51.554;6.736;2023-10-31T04:49:50;99277.00;;;10.90
37536;BMP180;23379;51.554;6.736;2023-10-31T04:52:16;99261.00;;;10.90
37536;BMP180;23379;51.554;6.736;2023-10-31T04:54:42;99289.00;;;10.90
37536;BMP180;23379;51.554;6.736;2023-10-31T04:57:07;99304.00;;;10.80
37536;BMP180;23379;51.554;6.736;2023-10-31T04:59:32;99295.00;;;10.90
37536;BMP180;23379;51.554;6.736;2023-10-31T05:01:58;99308.00;;;10.80
37536;BMP180;23379;51.554;6.736;2023-10-31T05:04:23;99289.00;;;10.80
37536;BMP180;23379;51.554;6.736;2023-10-31T05:06:48;99306.00;;;10.70
37536;BMP180;23379;51.554;6.736;2023-10-31T05:09:14;99298.00;;;10.70
37536;BMP180;23379;51.554;6.736;2023-10-31T05:11:39;99310.00;;;10.80
37536;BMP180;23379;51.554;6.736;2023-10-31T05:14:06;99322.00;;;10.70
37536;BMP180;23379;51.554;6.736;2023-10-31T05:16:39;99318.00;;;10.80
37536;BMP180;23379;51.554;6.736;2023-10-31T05:19:04;99326.00;;;10.90
37536;BMP180;23379;51.554;6.736;2023-10-31T05:21:29;99336.00;;;10.80
37536;BMP180;23379;51.554;6.736;2023-10-31T05:23:55;99324.00;;;10.90
37536;BMP180;23379;51.554;6.736;2023-10-31T05:26:20;99330.00;;;11.00
37536;BMP180;23379;51.554;6.736;2023-10-31T05:28:46;99338.00;;;10.90
37536;BMP180;23379;51.554;6.736;2023-10-31T05:31:15;99345.00;;;10.90
37536;BMP180;23379;51.554;6.736;2023-10-31T05:33:40;99316.00;;;10.80
37536;BMP180;23379;51.554;6.736;2023-10-31T05:36:06;99310.00;;;10.90
37536;BMP180;23379;51.554;6.736;2023-10-31T05:38:31;99347.00;;;11.00
37536;BMP180;23379;51.554;6.736;2023-10-31T05:40:57;99370.00;;;11.00
37536;BMP180;23379;51.554;6.736;2023-10-31T05:43:22;99372.00;;;11.20
37536;BMP180;23379;51.554;6.736;2023-10-31T05:45:47;99363.00;;;11.30
37536;BMP180;23379;51.554;6.736;2023-10-31T05:48:13;99372.00;;;11.10
37536;BMP180;23379;51.554;6.736;2023-10-31T05:50:41;99368.00;;;11.10
37536;BMP180;23379;51.554;6.736;2023-10-31T05:53:07;99374.00;;;11.20
37536;BMP180;23379;51.554;6.736;2023-10-31T05:55:32;99373.00;;;11.20
37536;BMP180;23379;51.554;6.736;2023-10-31T05:57:59;99344.00;;;11.20
37536;BMP180;23379;51.554;6.736;2023-10-31T06:00:25;99342.00;;;11.20
37536;BMP180;23379;51.554;6.736;2023-10-31T06:02:51;99368.00;;;11.40
37536;BMP180;23379;51.554;6.736;2023-10-31T06:05:16;99360.00;;;11.30
37536;BMP180;23379;51.554;6.736;2023-10-31T06:07:41;99382.00;;;11.30
37536;BMP180;23379;51.554;6.736;2023-10-31T06:10:08;99382.00;;;11.40
37536;BMP180;23379;51.554;6.736;2023-10-31T06:12:34;99398.00;;;11.20
37536;BMP180;23379;51.554;6.736;2023-10-31T06:14:59;99361.00;;;11.00
37536;BMP180;23379;51.554;6.736;2023-10-31T06:17:24;99409.00;;;11.00
37536;BMP180;23379;51.554;6.736;2023-10-31T06:19:51;99380.00;;;11.10
37536;BMP180;23379;51.554;6.736;2023-10-31T06:22:16;99410.00;;;11.10
37536;BMP180;23379;51.554;6.736;2023-10-31T06:24:42;99420.00;;;11.10
37536;BMP180;23379;51.554;6.736;2023-10-31T06:27:07;99412.00;;;11.00
37536;BMP180;23379;51.554;6.736;2023-10-31T06:29:32;99432.00;;;11.00
37536;BMP180;23379;51.554;6.736;2023-10-31T06:31:58;99430.00;;;11.00
37536;BMP180;23379;51.554;6.736;2023-10-31T06:34:23;99419.00;;;11.40
37536;BMP180;23379;51.554;6.736;2023-10-31T06:36:49;99432.00;;;11.20
37536;BMP180;23379;51.554;6.736;2023-10-31T06:39:14;99436.00;;;11.40
37536;BMP180;23379;51.554;6.736;2023-10-31T06:41:40;99438.00;;;11.20
37536;BMP180;23379;51.554;6.736;2023-10-31T06:44:05;99438.00;;;11.10
37536;BMP180;23379;51.554;6.736;2023-10-31T06:46:30;99442.00;;;11.00
37536;BMP180;23379;51.554;6.736;2023-10-31T06:48:56;99443.00;;;11.10
37536;BMP180;23379;51.554;6.736;2023-10-31T06:51:21;99447.00;;;11.30
37536;BMP180;23379;51.554;6.736;2023-10-31T06:53:47;99421.00;;;11.30
37536;BMP180;23379;51.554;6.736;2023-10-31T06:56:12;99459.00;;;11.20
37536;BMP180;23379;51.554;6.736;2023-10-31T06:58:37;99454.00;;;11.20
37536;BMP180;23379;51.554;6.736;2023-10-31T07:01:03;99461.00;;;11.30
37536;BMP180;23379;51.554;6.736;2023-10-31T07:03:28;99464.00;;;11.60
37536;BMP180;23379;51.554;6.736;2023-10-31T07:05:53;99450.00;;;11.50
37536;BMP180;23379;51.554;6.736;2023-10-31T07:08:21;99464.00;;;11.60
37536;BMP180;23379;51.554;6.736;2023-10-31T07:10:46;99427.00;;;11.40
37536;BMP180;23379;51.554;6.736;2023-10-31T07:13:12;99456.00;;;11.30
37536;BMP180;23379;51.554;6.736;2023-10-31T07:15:37;99458.00;;;11.40
37536;BMP180;23379;51.554;6.736;2023-10-31T07:18:05;99472.00;;;11.30
37536;BMP180;23379;51.554;6.736;2023-10-31T07:20:32;99460.00;;;11.50
37536;BMP180;23379;51.554;6.736;2023-10-31T07:22:58;99468.00;;;11.30
37536;BMP180;23379;51.554;6.736;2023-10-31T07:25:23;99466.00;;;11.20
37536;BMP180;23379;51.554;6.736;2023-10-31T07:27:48;99488.00;;;11.40
37536;BMP180;23379;51.554;6.736;2023-10-31T07:30:14;99482.00;;;11.40
37536;BMP180;23379;51.554;6.736;2023-10-31T07:32:39;99481.00;;;11.40
37536;BMP180;23379;51.554;6.736;2023-10-31T07:35:05;99486.00;;;11.60
37536;BMP180;23379;51.554;6.736;2023-10-31T07:37:30;99495.00;;;11.40
37536;BMP180;23379;51.554;6.736;2023-10-31T07:39:55;99505.00;;;11.50
37536;BMP180;23379;51.554;6.736;2023-10-31T07:42:21;99500.00;;;11.50
37536;BMP180;23379;51.554;6.736;2023-10-31T07:44:46;99503.00;;;11.40
37536;BMP180;23379;51.554;6.736;2023-10-31T07:47:11;99496.00;;;11.60
37536;BMP180;23379;51.554;6.736;2023-10-31T07:49:37;99499.00;;;11.60
37536;BMP180;23379;51.554;6.736;2023-10-31T07:52:02;99504.00;;;11.60
37536;BMP180;23379;51.554;6.736;2023-10-31T07:54:28;99510.00;;;11.40
37536;BMP180;23379;51.554;6.736;2023-10-31T07:56:53;99485.00;;;11.40
37536;BMP180;23379;51.554;6.736;2023-10-31T07:59:18;99502.00;;;11.30
37536;BMP180;23379;51.554;6.736;2023-10-31T08:01:44;99517.00;;;11.60
37536;BMP180;23379;51.554;6.736;2023-10-31T08:04:09;99504.00;;;11.70
37536;BMP180;23379;51.554;6.736;2023-10-31T08:06:35;99515.00;;;11.90
37536;BMP180;23379;51.554;6.736;2023-10-31T08:09:00;99509.00;;;11.90
37536;BMP180;23379;51.554;6.736;2023-10-31T08:11:25;99522.00;;;11.80
37536;BMP180;23379;51.554;6.736;2023-10-31T08:13:52;99517.00;;;11.70
37536;BMP180;23379;51.554;6.736;2023-10-31T08:16:18;99528.00;;;11.70
37536;BMP180;23379;51.554;6.736;2023-10-31T08:18:46;99504.00;;;11.50
37536;BMP180;23379;51.554;6.736;2023-10-31T08:21:12;99526.00;;;11.60
37536;BMP180;23379;51.554;6.736;2023-10-31T08:23:38;99525.00;;;11.60
37536;BMP180;23379;51.554;6.736;2023-10-31T08:26:03;99526.00;;;12.30
37536;BMP180;23379;51.554;6.736;2023-10-31T08:28:29;99519.00;;;13.00
37536;BMP180;23379;51.554;6.736;2023-10-31T08:30:55;99526.00;;;12.90
37536;BMP180;23379;51.554;6.736;2023-10-31T08:33:20;99501.00;;;12.60
37536;BMP180;23379;51.554;6.736;2023-10-31T08:35:46;99527.00;;;12.60
37536;BMP180;23379;51.554;6.736;2023-10-31T08:38:12;99542.00;;;12.30
37536;BMP180;23379;51.554;6.736;2023-10-31T08:40:38;99534.00;;;12.70
37536;BMP180;23379;51.554;6.736;2023-10-31T08:43:03;99528.00;;;13.50
37536;BMP180;23379;51.554;6.736;2023-10-31T08:45:31;99533.00;;;13.40
37536;BMP180;23379;51.554;6.736;2023-10-31T08:50:24;99540.00;;;13.50
37536;BMP180;23379;51.554;6.736;2023-10-31T08:52:50;99543.00;;;13.60
37536;BMP180;23379;51.554;6.736;2023-10-31T08:55:15;99538.00;;;13.10
37536;BMP180;23379;51.554;6.736;2023-10-31T08:57:41;99548.00;;;13.10
37536;BMP180;23379;51.554;6.736;2023-10-31T09:00:07;99560.00;;;13.10
37536;BMP180;23379;51.554;6.736;2023-10-31T09:02:32;99574.00;;;12.90
37536;BMP180;23379;51.554;6.736;2023-10-31T09:04:58;99574.00;;;13.30
37536;BMP180;23379;51.554;6.736;2023-10-31T09:07:24;99577.00;;;14.10
37536;BMP180;23379;51.554;6.736;2023-10-31T09:09:49;99579.00;;;14.40
37536;BMP180;23379;51.554;6.736;2023-10-31T09:12:14;99590.00;;;14.50
37536;BMP180;23379;51.554;6.736;2023-10-31T09:14:40;99587.00;;;15.10
37536;BMP180;23379;51.554;6.736;2023-10-31T09:17:07;99593.00;;;15.00
37536;BMP180;23379;51.554;6.736;2023-10-31T09:19:32;99598.00;;;15.60
37536;BMP180;23379;51.554;6.736;2023-10-31T09:21:57;99601.00;;;16.80
37536;BMP180;23379;51.554;6.736;2023-10-31T09:24:23;99585.00;;;17.30
37536;BMP180;23379;51.554;6.736;2023-10-31T09:26:49;99606.00;;;15.50
37536;BMP180;23379;51.554;6.736;2023-10-31T09:29:14;99607.00;;;16.40
37536;BMP180;23379;51.554;6.736;2023-10-31T09:31:39;99621.00;;;17.20
37536;BMP180;23379;51.554;6.736;2023-10-31T09:34:05;99629.00;;;16.50
37536;BMP180;23379;51.554;6.736;2023-10-31T09:36:34;99637.00;;;15.70
37536;BMP180;23379;51.554;6.736;2023-10-31T09:39:02;99630.00;;;14.90
37536;BMP180;23379;51.554;6.736;2023-10-31T09:41:28;99629.00;;;14.90
37536;BMP180;23379;51.554;6.736;2023-10-31T09:43:54;99642.00;;;14.70
37536;BMP180;23379;51.554;6.736;2023-10-31T09:46:21;99660.00;;;14.10
37536;BMP180;23379;51.554;6.736;2023-10-31T09:48:48;99645.00;;;13.40
37536;BMP180;23379;51.554;6.736;2023-10-31T09:51:14;99648.00;;;13.30
37536;BMP180;23379;51.554;6.736;2023-10-31T09:53:41;99660.00;;;12.70
37536;BMP180;23379;51.554;6.736;2023-10-31T09:56:07;99648.00;;;12.60
37536;BMP180;23379;51.554;6.736;2023-10-31T09:58:33;99656.00;;;12.70
37536;BMP180;23379;51.554;6.736;2023-10-31T10:00:59;99675.00;;;12.60
37536;BMP180;23379;51.554;6.736;2023-10-31T10:03:25;99640.00;;;12.80
37536;BMP180;23379;51.554;6.736;2023-10-31T10:05:51;99629.00;;;12.70
37536;BMP180;23379;51.554;6.736;2023-10-31T10:08:17;99677.00;;;12.20
37536;BMP180;23379;51.554;6.736;2023-10-31T10:10:42;99700.00;;;12.30
37536;BMP180;23379;51.554;6.736;2023-10-31T10:13:08;99695.00;;;12.20
37536;BMP180;23379;51.554;6.736;2023-10-31T10:15:48;99722.00;;;12.10
37536;BMP180;23379;51.554;6.736;2023-10-31T10:18:34;99694.00;;;12.20
37536;BMP180;23379;51.554;6.736;2023-10-31T10:21:04;99720.00;;;12.10
37536;BMP180;23379;51.554;6.736;2023-10-31T10:23:31;99719.00;;;12.30
37536;BMP180;23379;51.554;6.736;2023-10-31T10:25:58;99729.00;;;12.60
37536;BMP180;23379;51.554;6.736;2023-10-31T10:28:24;99728.00;;;12.20
37536;BMP180;23379;51.554;6.736;2023-10-31T10:30:54;99725.00;;;12.10
37536;BMP180;23379;51.554;6.736;2023-10-31T10:33:20;99750.00;;;12.30
37536;BMP180;23379;51.554;6.736;2023-10-31T10:35:46;99747.00;;;12.30
37536;BMP180;23379;51.554;6.736;2023-10-31T10:38:14;99739.00;;;12.40
37536;BMP180;23379;51.554;6.736;2023-10-31T10:40:41;99746.00;;;12.50
37536;BMP180;23379;51.554;6.736;2023-10-31T10:43:18;99718.00;;;12.50
37536;BMP180;23379;51.554;6.736;2023-10-31T10:45:45;99751.00;;;12.50
37536;BMP180;23379;51.554;6.736;2023-10-31T10:48:15;99759.00;;;12.60
37536;BMP180;23379;51.554;6.736;2023-10-31T10:50:43;99753.00;;;12.80
37536;BMP180;23379;51.554;6.736;2023-10-31T10:53:22;99736.00;;;13.10
37536;BMP180;23379;51.554;6.736;2023-10-31T10:55:54;99755.00;;;12.80
37536;BMP180;23379;51.554;6.736;2023-10-31T11:00:46;99744.00;;;12.60
37536;BMP180;23379;51.554;6.736;2023-10-31T11:03:12;99727.00;;;12.80
37536;BMP180;23379;51.554;6.736;2023-10-31T11:05:38;99747.00;;;13.00
37536;BMP180;23379;51.554;6.736;2023-10-31T11:08:05;99726.00;;;13.10
37536;BMP180;23379;51.554;6.736;2023-10-31T11:10:31;99744.00;;;13.40
37536;BMP180;23379;51.554;6.736;2023-10-31T11:12:57;99741.00;;;13.60
37536;BMP180;23379;51.554;6.736;2023-10-31T11:15:23;99752.00;;;13.50
37536;BMP180;23379;51.554;6.736;2023-10-31T11:17:50;99744.00;;;13.50
37536;BMP180;23379;51.554;6.736;2023-10-31T11:20:17;99759.00;;;13.00
37536;BMP180;23379;51.554;6.736;2023-10-31T11:22:47;99766.00;;;12.90
37536;BMP180;23379;51.554;6.736;2023-10-31T11:25:19;99754.00;;;12.70
37536;BMP180;23379;51.554;6.736;2023-10-31T11:27:45;99756.00;;;12.70
37536;BMP180;23379;51.554;6.736;2023-10-31T11:30:22;99773.00;;;12.90
37536;BMP180;23379;51.554;6.736;2023-10-31T11:32:48;99774.00;;;12.80
37536;BMP180;23379;51.554;6.736;2023-10-31T11:35:16;99730.00;;;13.00
37536;BMP180;23379;51.554;6.736;2023-10-31T11:37:42;99730.00;;;13.10
37536;BMP180;23379;51.554;6.736;2023-10-31T11:42:53;99763.00;;;13.10
37536;BMP180;23379;51.554;6.736;2023-10-31T11:45:44;99771.00;;;13.20
37536;BMP180;23379;51.554;6.736;2023-10-31T11:48:12;99774.00;;;13.40
37536;BMP180;23379;51.554;6.736;2023-10-31T11:50:38;99758.00;;;13.00
37536;BMP180;23379;51.554;6.736;2023-10-31T11:53:12;99771.00;;;13.40
37536;BMP180;23379;51.554;6.736;2023-10-31T11:55:46;99768.00;;;13.10
37536;BMP180;23379;51.554;6.736;2023-10-31T12:00:45;99784.00;;;14.20
37536;BMP180;23379;51.554;6.736;2023-10-31T12:03:11;99772.00;;;14.10
37536;BMP180;23379;51.554;6.736;2023-10-31T12:05:36;99789.00;;;13.90
37536;BMP180;23379;51.554;6.736;2023-10-31T12:08:02;99776.00;;;14.00
37536;BMP180;23379;51.554;6.736;2023-10-31T12:10:29;99784.00;;;13.80
37536;BMP180;23379;51.554;6.736;2023-10-31T12:12:58;99795.00;;;14.20
37536;BMP180;23379;51.554;6.736;2023-10-31T12:15:24;99750.00;;;14.20
37536;BMP180;23379;51.554;6.736;2023-10-31T12:17:50;99781.00;;;13.70
37536;BMP180;23379;51.554;6.736;2023-10-31T12:20:16;99805.00;;;13.60
37536;BMP180;23379;51.554;6.736;2023-10-31T12:22:42;99784.00;;;13.40
37536;BMP180;23379;51.554;6.736;2023-10-31T12:25:08;99770.00;;;13.50
37536;BMP180;23379;51.554;6.736;2023-10-31T12:30:10;99778.00;;;13.80
37536;BMP180;23379;51.554;6.736;2023-10-31T12:32:36;99795.00;;;14.00
37536;BMP180;23379;51.554;6.736;2023-10-31T12:35:02;99788.00;;;13.90
37536;BMP180;23379;51.554;6.736;2023-10-31T12:37:28;99794.00;;;14.00
37536;BMP180;23379;51.554;6.736;2023-10-31T12:39:54;99797.00;;;13.90
37536;BMP180;23379;51.554;6.736;2023-10-31T12:42:20;99789.00;;;14.20
37536;BMP180;23379;51.554;6.736;2023-10-31T12:44:46;99790.00;;;14.00
37536;BMP180;23379;51.554;6.736;2023-10-31T12:47:21;99798.00;;;14.20
37536;BMP180;23379;51.554;6.736;2023-10-31T12:49:46;99784.00;;;14.00
37536;BMP180;23379;51.554;6.736;2023-10-31T12:52:11;99794.00;;;14.00
37536;BMP180;23379;51.554;6.736;2023-10-31T12:54:38;99775.00;;;13.90
37536;BMP180;23379;51.554;6.736;2023-10-31T12:57:05;99778.00;;;13.90
37536;BMP180;23379;51.554;6.736;2023-10-31T12:59:34;99786.00;;;13.80
37536;BMP180;23379;51.554;6.736;2023-10-31T13:02:01;99790.00;;;14.30
37536;BMP180;23379;51.554;6.736;2023-10-31T13:04:28;99802.00;;;15.20
37536;BMP180;23379;51.554;6.736;2023-10-31T13:07:14;99799.00;;;16.70
37536;BMP180;23379;51.554;6.736;2023-10-31T13:09:39;99784.00;;;18.20
37536;BMP180;23379;51.554;6.736;2023-10-31T13:12:08;99795.00;;;17.80
37536;BMP180;23379;51.554;6.736;2023-10-31T13:14:34;99821.00;;;17.80
37536;BMP180;23379;51.554;6.736;2023-10-31T13:17:00;99791.00;;;17.00
37536;BMP180;23379;51.554;6.736;2023-10-31T13:19:25;99776.00;;;16.10
37536;BMP180;23379;51.554;6.736;2023-10-31T13:21:51;99793.00;;;15.50
37536;BMP180;23379;51.554;6.736;2023-10-31T13:24:16;99799.00;;;15.10
37536;BMP180;23379;51.554;6.736;2023-10-31T13:26:42;99788.00;;;14.90
37536;BMP180;23379;51.554;6.736;2023-10-31T13:29:09;99793.00;;;15.40
37536;BMP180;23379;51.554;6.736;2023-10-31T13:31:35;99796.00;;;15.30
37536;BMP180;23379;51.554;6.736;2023-10-31T13:34:00;99788.00;;;15.40
37536;BMP180;23379;51.554;6.736;2023-10-31T13:36:26;99790.00;;;16.50
37536;BMP180;23379;51.554;6.736;2023-10-31T13:38:51;99809.00;;;17.80
37536;BMP180;23379;51.554;6.736;2023-10-31T13:41:17;99783.00;;;17.90
37536;BMP180;23379;51.554;6.736;2023-10-31T13:43:42;99804.00;;;19.00
37536;BMP180;23379;51.554;6.736;2023-10-31T13:46:08;99792.00;;;19.30
37536;BMP180;23379;51.554;6.736;2023-10-31T13:48:33;99802.00;;;17.80
37536;BMP180;23379;51.554;6.736;2023-10-31T13:50:58;99795.00;;;17.00
37536;BMP180;23379;51.554;6.736;2023-10-31T13:53:25;99797.00;;;16.20
37536;BMP180;23379;51.554;6.736;2023-10-31T13:55:50;99797.00;;;16.20
37536;BMP180;23379;51.554;6.736;2023-10-31T13:58:15;99805.00;;;17.10
37536;BMP180;23379;51.554;6.736;2023-10-31T14:00:43;99805.00;;;17.10
37536;BMP180;23379;51.554;6.736;2023-10-31T14:03:10;99805.00;;;17.30
37536;BMP180;23379;51.554;6.736;2023-10-31T14:05:35;99781.00;;;16.60
37536;BMP180;23379;51.554;6.736;2023-10-31T14:08:01;99803.00;;;16.00
37536;BMP180;23379;51.554;6.736;2023-10-31T14:10:26;99788.00;;;15.70
37536;BMP180;23379;51.554;6.736;2023-10-31T14:12:52;99812.00;;;15.60
37536;BMP180;23379;51.554;6.736;2023-10-31T14:15:18;99825.00;;;15.20